WQ204 WAJJ-YPGV
Flight info
| Callsign | WQ204 |
|---|---|
| Flight time | 1h 35m |
| Altitude | 37000 |
| Route | IDINA W66 ZX/N0443F360 W66 UPNUM DCT OSREN DCT |
| Aircraft | B738/M-SDE2E3FGHIRWXY/LB1D1 |
Departure
| Time | 2026-04-18 19:10 |
|---|---|
| Airport | Dortheys Hiyo Eluay International Airport (WAJJ) |
Arrival
| Time | 2026-04-18 20:46 |
|---|---|
| Airport | Gove Airport (YPGV) |
| Time | Latitude | Longitude | Altitude | Speed | Heading |
|---|---|---|---|---|---|
| 2026-04-18 18:33 | -2.57100 | 140.51243 | 297 ft | 0 kts | 37° |
| 2026-04-18 18:35 | -2.57109 | 140.51236 | 300 ft | 2 kts | 37° |
| 2026-04-18 18:36 | -2.57123 | 140.51226 | 299 ft | 2 kts | 37° |
| 2026-04-18 18:36 | -2.57136 | 140.51216 | 299 ft | 2 kts | 36° |
| 2026-04-18 18:36 | -2.57150 | 140.51208 | 300 ft | 2 kts | 359° |
| 2026-04-18 18:36 | -2.57161 | 140.51212 | 298 ft | 1 kts | 308° |
| 2026-04-18 18:37 | -2.57162 | 140.51214 | 298 ft | 0 kts | 306° |
| 2026-04-18 19:05 | -2.57162 | 140.51213 | 298 ft | 1 kts | 306° |
| 2026-04-18 19:05 | -2.57149 | 140.51196 | 298 ft | 1 kts | 306° |
| 2026-04-18 19:05 | -2.57144 | 140.51188 | 298 ft | 1 kts | 300° |
| 2026-04-18 19:06 | -2.57140 | 140.51179 | 298 ft | 2 kts | 290° |
| 2026-04-18 19:06 | -2.57108 | 140.51117 | 302 ft | 7 kts | 303° |
| 2026-04-18 19:06 | -2.57099 | 140.51101 | 300 ft | 5 kts | 293° |
| 2026-04-18 19:07 | -2.57121 | 140.51065 | 300 ft | 5 kts | 228° |
| 2026-04-18 19:07 | -2.57122 | 140.51065 | 300 ft | 0 kts | 228° |
| 2026-04-18 19:07 | -2.57127 | 140.51059 | 299 ft | 4 kts | 227° |
| 2026-04-18 19:07 | -2.57152 | 140.51028 | 301 ft | 0 kts | 230° |
| 2026-04-18 19:08 | -2.57169 | 140.51008 | 291 ft | 7 kts | 229° |
| 2026-04-18 19:08 | -2.57225 | 140.51016 | 300 ft | 12 kts | 136° |
| 2026-04-18 19:08 | -2.57274 | 140.51082 | 299 ft | 0 kts | 125° |
| 2026-04-18 19:09 | -2.57327 | 140.51157 | 300 ft | 38 kts | 126° |
| 2026-04-18 19:10 | -2.57673 | 140.51619 | 300 ft | 127 kts | 126° |
| 2026-04-18 19:10 | -2.58330 | 140.52498 | 490 ft | 168 kts | 127° |
| 2026-04-18 19:10 | -2.58991 | 140.53293 | 1304 ft | 147 kts | 132° |
| 2026-04-18 19:10 | -2.59790 | 140.54154 | 1538 ft | 182 kts | 134° |
| 2026-04-18 19:11 | -2.60695 | 140.55068 | 1991 ft | 186 kts | 134° |
| 2026-04-18 19:11 | -2.61561 | 140.56024 | 2736 ft | 184 kts | 131° |
| 2026-04-18 19:11 | -2.62344 | 140.57031 | 3489 ft | 186 kts | 123° |
| 2026-04-18 19:11 | -2.63124 | 140.58137 | 3903 ft | 207 kts | 126° |
| 2026-04-18 19:12 | -2.64115 | 140.59395 | 3825 ft | 245 kts | 123° |
| 2026-04-18 19:12 | -2.65047 | 140.60730 | 4870 ft | 225 kts | 133° |
| 2026-04-18 19:12 | -2.66454 | 140.61548 | 4998 ft | 255 kts | 163° |
| 2026-04-18 19:12 | -2.68273 | 140.61429 | 5407 ft | 261 kts | 192° |
| 2026-04-18 19:13 | -2.69955 | 140.60904 | 6179 ft | 250 kts | 194° |
| 2026-04-18 19:13 | -2.71650 | 140.60325 | 6391 ft | 273 kts | 195° |
| 2026-04-18 19:13 | -2.73494 | 140.59715 | 7027 ft | 283 kts | 194° |
| 2026-04-18 19:13 | -2.75392 | 140.59136 | 7845 ft | 287 kts | 193° |
| 2026-04-18 19:14 | -2.77330 | 140.58602 | 8664 ft | 291 kts | 188° |
| 2026-04-18 19:14 | -2.79350 | 140.58397 | 9479 ft | 293 kts | 179° |
| 2026-04-18 19:14 | -2.81409 | 140.58373 | 10213 ft | 300 kts | 177° |
| 2026-04-18 19:14 | -2.83582 | 140.58393 | 10451 ft | 325 kts | 176° |
| 2026-04-18 19:15 | -2.85924 | 140.58416 | 10664 ft | 347 kts | 177° |
| 2026-04-18 19:15 | -2.88375 | 140.58425 | 11183 ft | 357 kts | 178° |
| 2026-04-18 19:15 | -2.90860 | 140.58419 | 11855 ft | 360 kts | 178° |
| 2026-04-18 19:15 | -2.93347 | 140.58401 | 12558 ft | 363 kts | 178° |
| 2026-04-18 19:16 | -2.95890 | 140.58376 | 13235 ft | 367 kts | 179° |
| 2026-04-18 19:16 | -2.98460 | 140.58347 | 13856 ft | 371 kts | 179° |
| 2026-04-18 19:16 | -3.01063 | 140.58314 | 14427 ft | 375 kts | 179° |
| 2026-04-18 19:16 | -3.03679 | 140.58279 | 15005 ft | 378 kts | 179° |
| 2026-04-18 19:17 | -3.06321 | 140.58244 | 15580 ft | 381 kts | 179° |
| 2026-04-18 19:17 | -3.08986 | 140.58208 | 16140 ft | 385 kts | 179° |
| 2026-04-18 19:17 | -3.11676 | 140.58171 | 16699 ft | 388 kts | 179° |
| 2026-04-18 19:17 | -3.14394 | 140.58134 | 17249 ft | 392 kts | 179° |
| 2026-04-18 19:18 | -3.17135 | 140.58097 | 17790 ft | 395 kts | 179° |
| 2026-04-18 19:18 | -3.19902 | 140.58059 | 18299 ft | 399 kts | 179° |
| 2026-04-18 19:18 | -3.22690 | 140.58021 | 18749 ft | 402 kts | 179° |
| 2026-04-18 19:18 | -3.25496 | 140.57983 | 19202 ft | 405 kts | 179° |
| 2026-04-18 19:19 | -3.28323 | 140.57944 | 19665 ft | 408 kts | 179° |
| 2026-04-18 19:19 | -3.31133 | 140.57906 | 20101 ft | 411 kts | 179° |
| 2026-04-18 19:19 | -3.34010 | 140.57867 | 20539 ft | 414 kts | 179° |
| 2026-04-18 19:19 | -3.36896 | 140.57828 | 20964 ft | 417 kts | 179° |
| 2026-04-18 19:20 | -3.39810 | 140.57788 | 21388 ft | 420 kts | 179° |
| 2026-04-18 19:20 | -3.42746 | 140.57748 | 21796 ft | 423 kts | 179° |
| 2026-04-18 19:20 | -3.45697 | 140.57708 | 22208 ft | 426 kts | 179° |
| 2026-04-18 19:20 | -3.48668 | 140.57667 | 22612 ft | 428 kts | 180° |
| 2026-04-18 19:21 | -3.51667 | 140.57627 | 22996 ft | 431 kts | 180° |
| 2026-04-18 19:21 | -3.54645 | 140.57586 | 23384 ft | 434 kts | 180° |
| 2026-04-18 19:21 | -3.57678 | 140.57545 | 23714 ft | 437 kts | 180° |
| 2026-04-18 19:21 | -3.60724 | 140.57503 | 24052 ft | 438 kts | 179° |
| 2026-04-18 19:22 | -3.63781 | 140.57462 | 24398 ft | 440 kts | 179° |
| 2026-04-18 19:22 | -3.66846 | 140.57420 | 24738 ft | 441 kts | 179° |
| 2026-04-18 19:22 | -3.69916 | 140.57378 | 25063 ft | 443 kts | 179° |
| 2026-04-18 19:22 | -3.73006 | 140.57336 | 25382 ft | 445 kts | 179° |
| 2026-04-18 19:23 | -3.76106 | 140.57294 | 25699 ft | 446 kts | 179° |
| 2026-04-18 19:23 | -3.79222 | 140.57252 | 26019 ft | 448 kts | 179° |
| 2026-04-18 19:23 | -3.82348 | 140.57209 | 26323 ft | 450 kts | 179° |
| 2026-04-18 19:23 | -3.85490 | 140.57167 | 26615 ft | 452 kts | 179° |
| 2026-04-18 19:24 | -3.88640 | 140.57124 | 26916 ft | 453 kts | 179° |
| 2026-04-18 19:24 | -3.91794 | 140.57081 | 27210 ft | 455 kts | 179° |
| 2026-04-18 19:24 | -3.94964 | 140.57038 | 27500 ft | 456 kts | 179° |
| 2026-04-18 19:24 | -3.98142 | 140.56995 | 27773 ft | 458 kts | 179° |
| 2026-04-18 19:25 | -4.01338 | 140.56951 | 28055 ft | 460 kts | 179° |
| 2026-04-18 19:25 | -4.04544 | 140.56907 | 28311 ft | 461 kts | 179° |
| 2026-04-18 19:25 | -4.07714 | 140.56864 | 28575 ft | 463 kts | 179° |
| 2026-04-18 19:25 | -4.10939 | 140.56820 | 28828 ft | 464 kts | 179° |
| 2026-04-18 19:26 | -4.14179 | 140.56776 | 29073 ft | 466 kts | 179° |
| 2026-04-18 19:26 | -4.17428 | 140.56732 | 29324 ft | 467 kts | 178° |
| 2026-04-18 19:26 | -4.20688 | 140.56687 | 29561 ft | 469 kts | 178° |
| 2026-04-18 19:26 | -4.23962 | 140.56643 | 29797 ft | 471 kts | 178° |
| 2026-04-18 19:27 | -4.27245 | 140.56602 | 30010 ft | 472 kts | 178° |
| 2026-04-18 19:27 | -4.30533 | 140.56629 | 30205 ft | 473 kts | 176° |
| 2026-04-18 19:27 | -4.33827 | 140.56703 | 30393 ft | 474 kts | 176° |
| 2026-04-18 19:27 | -4.37128 | 140.56796 | 30629 ft | 474 kts | 176° |
| 2026-04-18 19:28 | -4.40419 | 140.56886 | 30911 ft | 473 kts | 176° |
| 2026-04-18 19:28 | -4.43708 | 140.56970 | 31214 ft | 472 kts | 176° |
| 2026-04-18 19:28 | -4.46990 | 140.57047 | 31505 ft | 471 kts | 176° |
| 2026-04-18 19:28 | -4.50264 | 140.57118 | 31813 ft | 470 kts | 176° |
| 2026-04-18 19:29 | -4.53540 | 140.57186 | 32090 ft | 470 kts | 176° |
| 2026-04-18 19:29 | -4.56806 | 140.57254 | 32377 ft | 470 kts | 176° |
| 2026-04-18 19:29 | -4.60074 | 140.57322 | 32677 ft | 469 kts | 176° |
| 2026-04-18 19:29 | -4.63332 | 140.57389 | 33003 ft | 468 kts | 175° |
| 2026-04-18 19:30 | -4.66581 | 140.57457 | 33308 ft | 466 kts | 175° |
| 2026-04-18 19:30 | -4.69781 | 140.57524 | 33587 ft | 466 kts | 175° |
| 2026-04-18 19:30 | -4.73019 | 140.57592 | 33918 ft | 465 kts | 175° |
| 2026-04-18 19:30 | -4.76250 | 140.57660 | 34222 ft | 463 kts | 175° |
| 2026-04-18 19:31 | -4.79476 | 140.57727 | 34539 ft | 461 kts | 175° |
| 2026-04-18 19:31 | -4.82674 | 140.57784 | 34862 ft | 460 kts | 178° |
| 2026-04-18 19:31 | -4.85874 | 140.57554 | 35151 ft | 462 kts | 186° |
| 2026-04-18 19:31 | -4.89026 | 140.56870 | 35442 ft | 463 kts | 191° |
| 2026-04-18 19:32 | -4.91097 | 140.56354 | 35644 ft | 462 kts | 191° |
| 2026-04-18 19:32 | -4.94208 | 140.55554 | 35916 ft | 461 kts | 191° |
| 2026-04-18 19:32 | -4.97304 | 140.54752 | 36194 ft | 460 kts | 191° |
| 2026-04-18 19:32 | -5.00405 | 140.53958 | 36461 ft | 459 kts | 191° |
| 2026-04-18 19:33 | -5.03492 | 140.53180 | 36718 ft | 458 kts | 191° |
| 2026-04-18 19:33 | -5.06591 | 140.52409 | 36973 ft | 458 kts | 191° |
| 2026-04-18 19:33 | -5.12789 | 140.50883 | 36935 ft | 462 kts | 191° |
| 2026-04-18 19:34 | -5.19009 | 140.49356 | 36924 ft | 457 kts | 191° |
| 2026-04-18 19:34 | -5.25166 | 140.47843 | 36911 ft | 453 kts | 191° |
| 2026-04-18 19:35 | -5.31258 | 140.46346 | 36903 ft | 449 kts | 191° |
| 2026-04-18 19:35 | -5.37358 | 140.44847 | 36912 ft | 454 kts | 191° |
| 2026-04-18 19:36 | -5.43503 | 140.43338 | 36898 ft | 460 kts | 191° |
| 2026-04-18 19:36 | -5.49723 | 140.41807 | 36895 ft | 461 kts | 191° |
| 2026-04-18 19:37 | -5.55965 | 140.40270 | 36894 ft | 462 kts | 191° |
| 2026-04-18 19:37 | -5.62222 | 140.38729 | 36890 ft | 462 kts | 191° |
| 2026-04-18 19:38 | -5.68467 | 140.37191 | 36886 ft | 461 kts | 191° |
| 2026-04-18 19:38 | -5.74693 | 140.35658 | 36885 ft | 459 kts | 191° |
| 2026-04-18 19:39 | -5.80884 | 140.34133 | 36884 ft | 457 kts | 191° |
| 2026-04-18 19:39 | -5.87019 | 140.32621 | 36891 ft | 456 kts | 191° |
| 2026-04-18 19:40 | -5.93172 | 140.31104 | 36887 ft | 454 kts | 191° |
| 2026-04-18 19:40 | -5.99308 | 140.29592 | 36887 ft | 453 kts | 191° |
| 2026-04-18 19:41 | -6.05420 | 140.28085 | 36883 ft | 452 kts | 191° |
| 2026-04-18 19:41 | -6.11478 | 140.26329 | 36882 ft | 455 kts | 200° |
| 2026-04-18 19:42 | -6.17007 | 140.23179 | 36895 ft | 458 kts | 210° |
| 2026-04-18 19:42 | -6.22385 | 140.19724 | 36888 ft | 460 kts | 210° |
| 2026-04-18 19:43 | -6.27791 | 140.16271 | 36884 ft | 461 kts | 210° |
| 2026-04-18 19:43 | -6.33193 | 140.12862 | 36890 ft | 462 kts | 210° |
| 2026-04-18 19:44 | -6.38659 | 140.09433 | 36890 ft | 463 kts | 210° |
| 2026-04-18 19:45 | -6.46875 | 140.04281 | 36892 ft | 465 kts | 210° |
| 2026-04-18 19:45 | -6.52370 | 140.00833 | 36891 ft | 465 kts | 210° |
| 2026-04-18 19:46 | -6.57861 | 139.97385 | 36895 ft | 466 kts | 210° |
| 2026-04-18 19:46 | -6.63272 | 139.93987 | 36888 ft | 466 kts | 210° |
| 2026-04-18 19:47 | -6.68778 | 139.90528 | 36892 ft | 466 kts | 210° |
| 2026-04-18 19:47 | -6.74272 | 139.87076 | 36883 ft | 466 kts | 210° |
| 2026-04-18 19:48 | -6.79745 | 139.83636 | 36888 ft | 465 kts | 210° |
| 2026-04-18 19:48 | -6.85233 | 139.80186 | 36891 ft | 465 kts | 210° |
| 2026-04-18 19:49 | -6.90728 | 139.76730 | 36890 ft | 465 kts | 210° |
| 2026-04-18 19:49 | -6.96210 | 139.73281 | 36891 ft | 465 kts | 210° |
| 2026-04-18 19:50 | -7.01700 | 139.69827 | 36891 ft | 465 kts | 210° |
| 2026-04-18 19:50 | -7.07188 | 139.66373 | 36888 ft | 465 kts | 210° |
| 2026-04-18 19:51 | -7.12637 | 139.62943 | 36894 ft | 464 kts | 210° |
| 2026-04-18 19:51 | -7.18121 | 139.59489 | 36887 ft | 464 kts | 210° |
| 2026-04-18 19:52 | -7.23604 | 139.56035 | 36888 ft | 464 kts | 210° |
| 2026-04-18 19:52 | -7.29087 | 139.52580 | 36888 ft | 464 kts | 210° |
| 2026-04-18 19:53 | -7.34532 | 139.49148 | 36887 ft | 464 kts | 210° |
| 2026-04-18 19:53 | -7.42746 | 139.43969 | 36894 ft | 464 kts | 210° |
| 2026-04-18 19:54 | -7.48219 | 139.40517 | 36890 ft | 464 kts | 210° |
| 2026-04-18 19:54 | -7.53703 | 139.37057 | 36887 ft | 464 kts | 210° |
| 2026-04-18 19:55 | -7.59187 | 139.33596 | 36884 ft | 464 kts | 210° |
| 2026-04-18 19:55 | -7.64670 | 139.30134 | 36883 ft | 464 kts | 210° |
| 2026-04-18 19:56 | -7.70153 | 139.26671 | 36882 ft | 464 kts | 210° |
| 2026-04-18 19:56 | -7.75597 | 139.23232 | 36886 ft | 464 kts | 210° |
| 2026-04-18 19:57 | -7.81061 | 139.19779 | 36883 ft | 464 kts | 210° |
| 2026-04-18 19:57 | -7.86538 | 139.16316 | 36883 ft | 464 kts | 210° |
| 2026-04-18 19:58 | -7.92004 | 139.12860 | 36887 ft | 464 kts | 210° |
| 2026-04-18 19:58 | -7.97476 | 139.09398 | 36884 ft | 464 kts | 210° |
| 2026-04-18 19:59 | -8.02935 | 139.05943 | 36884 ft | 463 kts | 210° |
| 2026-04-18 19:59 | -8.08400 | 139.02483 | 36886 ft | 463 kts | 210° |
| 2026-04-18 20:00 | -8.13847 | 138.99087 | 36883 ft | 462 kts | 208° |
| 2026-04-18 20:00 | -8.19435 | 138.95899 | 36889 ft | 461 kts | 206° |
| 2026-04-18 20:01 | -8.25059 | 138.92753 | 36884 ft | 461 kts | 206° |
| 2026-04-18 20:01 | -8.30647 | 138.89594 | 36885 ft | 460 kts | 207° |
| 2026-04-18 20:02 | -8.36230 | 138.86410 | 36882 ft | 460 kts | 207° |
| 2026-04-18 20:02 | -8.41758 | 138.83249 | 36881 ft | 460 kts | 207° |
| 2026-04-18 20:03 | -8.47327 | 138.80061 | 36884 ft | 459 kts | 207° |
| 2026-04-18 20:03 | -8.52894 | 138.76876 | 36882 ft | 459 kts | 207° |
| 2026-04-18 20:04 | -8.58450 | 138.73696 | 36881 ft | 459 kts | 207° |
| 2026-04-18 20:04 | -8.64016 | 138.70509 | 36884 ft | 459 kts | 207° |
| 2026-04-18 20:05 | -8.69576 | 138.67326 | 36886 ft | 460 kts | 207° |
| 2026-04-18 20:05 | -8.75139 | 138.64138 | 36881 ft | 460 kts | 207° |
| 2026-04-18 20:06 | -8.80709 | 138.60946 | 36881 ft | 461 kts | 206° |
| 2026-04-18 20:06 | -8.86294 | 138.57744 | 36881 ft | 461 kts | 207° |
| 2026-04-18 20:07 | -8.91877 | 138.54542 | 36884 ft | 462 kts | 207° |
| 2026-04-18 20:07 | -8.97176 | 138.51502 | 36879 ft | 462 kts | 207° |
| 2026-04-18 20:08 | -9.02771 | 138.48291 | 36882 ft | 463 kts | 207° |
| 2026-04-18 20:08 | -9.08344 | 138.45092 | 36880 ft | 463 kts | 207° |
| 2026-04-18 20:09 | -9.13948 | 138.41873 | 36880 ft | 464 kts | 207° |
| 2026-04-18 20:09 | -9.19556 | 138.38651 | 36881 ft | 464 kts | 207° |
| 2026-04-18 20:10 | -9.25164 | 138.35428 | 36877 ft | 464 kts | 207° |
| 2026-04-18 20:10 | -9.30787 | 138.32194 | 36877 ft | 463 kts | 207° |
| 2026-04-18 20:11 | -9.36387 | 138.28973 | 36880 ft | 463 kts | 207° |
| 2026-04-18 20:11 | -9.41949 | 138.25773 | 36881 ft | 462 kts | 207° |
| 2026-04-18 20:12 | -9.47528 | 138.22561 | 36881 ft | 461 kts | 207° |
| 2026-04-18 20:12 | -9.53095 | 138.19355 | 36881 ft | 460 kts | 207° |
| 2026-04-18 20:13 | -9.58651 | 138.16155 | 36880 ft | 459 kts | 207° |
| 2026-04-18 20:13 | -9.64200 | 138.12957 | 36884 ft | 458 kts | 207° |
| 2026-04-18 20:14 | -9.69735 | 138.09767 | 36883 ft | 457 kts | 207° |
| 2026-04-18 20:14 | -9.75267 | 138.06576 | 36879 ft | 457 kts | 208° |
| 2026-04-18 20:15 | -9.80790 | 138.03390 | 36885 ft | 456 kts | 208° |
| 2026-04-18 20:15 | -9.86312 | 138.00203 | 36885 ft | 456 kts | 208° |
| 2026-04-18 20:16 | -9.91796 | 137.97037 | 36885 ft | 456 kts | 208° |
| 2026-04-18 20:16 | -9.97320 | 137.93846 | 36883 ft | 457 kts | 208° |
| 2026-04-18 20:17 | -10.02846 | 137.90653 | 36882 ft | 457 kts | 208° |
| 2026-04-18 20:17 | -10.08379 | 137.87455 | 36885 ft | 458 kts | 208° |
| 2026-04-18 20:18 | -10.13923 | 137.84249 | 36884 ft | 458 kts | 208° |
| 2026-04-18 20:18 | -10.19438 | 137.81058 | 36886 ft | 459 kts | 208° |
| 2026-04-18 20:19 | -10.25006 | 137.77836 | 36885 ft | 460 kts | 208° |
| 2026-04-18 20:19 | -10.30576 | 137.74611 | 36886 ft | 460 kts | 208° |
| 2026-04-18 20:20 | -10.35206 | 137.71929 | 36844 ft | 462 kts | 208° |
| 2026-04-18 20:20 | -10.38019 | 137.70300 | 36289 ft | 468 kts | 208° |
| 2026-04-18 20:20 | -10.40840 | 137.68665 | 35718 ft | 465 kts | 208° |
| 2026-04-18 20:21 | -10.43649 | 137.67037 | 35044 ft | 466 kts | 208° |
| 2026-04-18 20:21 | -10.46471 | 137.65400 | 34319 ft | 468 kts | 208° |
| 2026-04-18 20:21 | -10.49307 | 137.63756 | 33558 ft | 470 kts | 208° |
| 2026-04-18 20:21 | -10.52144 | 137.62111 | 32981 ft | 467 kts | 208° |
| 2026-04-18 20:22 | -10.54959 | 137.60477 | 32449 ft | 463 kts | 208° |
| 2026-04-18 20:22 | -10.57751 | 137.58856 | 31921 ft | 460 kts | 208° |
| 2026-04-18 20:22 | -10.60519 | 137.57249 | 31423 ft | 456 kts | 208° |
| 2026-04-18 20:22 | -10.63265 | 137.55655 | 30908 ft | 454 kts | 208° |
| 2026-04-18 20:23 | -10.65962 | 137.54089 | 30410 ft | 451 kts | 208° |
| 2026-04-18 20:23 | -10.68689 | 137.52505 | 29890 ft | 449 kts | 208° |
| 2026-04-18 20:23 | -10.71396 | 137.50934 | 29326 ft | 446 kts | 208° |
| 2026-04-18 20:23 | -10.74081 | 137.49374 | 28784 ft | 443 kts | 208° |
| 2026-04-18 20:24 | -10.76744 | 137.47826 | 28267 ft | 439 kts | 208° |
| 2026-04-18 20:24 | -10.79392 | 137.46287 | 27756 ft | 436 kts | 208° |
| 2026-04-18 20:24 | -10.82014 | 137.44763 | 27250 ft | 433 kts | 208° |
| 2026-04-18 20:24 | -10.84622 | 137.43247 | 26753 ft | 430 kts | 208° |
| 2026-04-18 20:25 | -10.87208 | 137.41743 | 26258 ft | 427 kts | 209° |
| 2026-04-18 20:25 | -10.89788 | 137.40243 | 25742 ft | 425 kts | 209° |
| 2026-04-18 20:25 | -10.92353 | 137.38751 | 25234 ft | 423 kts | 209° |
| 2026-04-18 20:25 | -10.94906 | 137.37266 | 24728 ft | 422 kts | 209° |
| 2026-04-18 20:26 | -10.97456 | 137.35781 | 24234 ft | 420 kts | 209° |
| 2026-04-18 20:26 | -10.99991 | 137.34305 | 23734 ft | 419 kts | 209° |
| 2026-04-18 20:26 | -11.02490 | 137.32851 | 23197 ft | 417 kts | 210° |
| 2026-04-18 20:26 | -11.04991 | 137.31394 | 22653 ft | 409 kts | 210° |
| 2026-04-18 20:27 | -11.07423 | 137.29977 | 22153 ft | 397 kts | 210° |
| 2026-04-18 20:27 | -11.09793 | 137.28596 | 21681 ft | 386 kts | 210° |
| 2026-04-18 20:27 | -11.12101 | 137.27251 | 21226 ft | 376 kts | 210° |
| 2026-04-18 20:27 | -11.14350 | 137.25940 | 20787 ft | 368 kts | 210° |
| 2026-04-18 20:28 | -11.16527 | 137.24671 | 20362 ft | 362 kts | 210° |
| 2026-04-18 20:28 | -11.18697 | 137.23407 | 19940 ft | 359 kts | 210° |
| 2026-04-18 20:28 | -11.20888 | 137.22129 | 19501 ft | 368 kts | 210° |
| 2026-04-18 20:28 | -11.23163 | 137.20803 | 19043 ft | 380 kts | 210° |
| 2026-04-18 20:29 | -11.25440 | 137.19474 | 18564 ft | 375 kts | 210° |
| 2026-04-18 20:29 | -11.27706 | 137.18152 | 18105 ft | 375 kts | 210° |
| 2026-04-18 20:29 | -11.29969 | 137.16831 | 17603 ft | 375 kts | 209° |
| 2026-04-18 20:29 | -11.32227 | 137.15514 | 17144 ft | 373 kts | 209° |
| 2026-04-18 20:30 | -11.34477 | 137.14200 | 16687 ft | 372 kts | 209° |
| 2026-04-18 20:30 | -11.36694 | 137.12906 | 16241 ft | 370 kts | 209° |
| 2026-04-18 20:30 | -11.38923 | 137.11603 | 15796 ft | 369 kts | 209° |
| 2026-04-18 20:30 | -11.41146 | 137.10305 | 15341 ft | 368 kts | 209° |
| 2026-04-18 20:31 | -11.43366 | 137.09008 | 14885 ft | 367 kts | 208° |
| 2026-04-18 20:31 | -11.45585 | 137.07712 | 14431 ft | 366 kts | 209° |
| 2026-04-18 20:31 | -11.47782 | 137.06427 | 13962 ft | 359 kts | 208° |
| 2026-04-18 20:31 | -11.49919 | 137.05177 | 13508 ft | 349 kts | 208° |
| 2026-04-18 20:32 | -11.51998 | 137.03960 | 13053 ft | 340 kts | 208° |
| 2026-04-18 20:32 | -11.54026 | 137.02774 | 12628 ft | 331 kts | 208° |
| 2026-04-18 20:32 | -11.56008 | 137.01615 | 12216 ft | 324 kts | 208° |
| 2026-04-18 20:32 | -11.57953 | 137.00478 | 11824 ft | 321 kts | 208° |
| 2026-04-18 20:33 | -11.59861 | 136.99363 | 11444 ft | 320 kts | 208° |
| 2026-04-18 20:33 | -11.61833 | 136.98211 | 11048 ft | 332 kts | 208° |
| 2026-04-18 20:33 | -11.63864 | 136.97025 | 10606 ft | 339 kts | 207° |
| 2026-04-18 20:33 | -11.65891 | 136.95837 | 10413 ft | 331 kts | 208° |
| 2026-04-18 20:34 | -11.67855 | 136.94686 | 10286 ft | 321 kts | 208° |
| 2026-04-18 20:34 | -11.69764 | 136.93566 | 10159 ft | 312 kts | 208° |
| 2026-04-18 20:34 | -11.71613 | 136.92482 | 10030 ft | 302 kts | 207° |
| 2026-04-18 20:34 | -11.73435 | 136.91416 | 9741 ft | 301 kts | 207° |
| 2026-04-18 20:35 | -11.75253 | 136.90352 | 9420 ft | 300 kts | 207° |
| 2026-04-18 20:35 | -11.77063 | 136.89292 | 9104 ft | 300 kts | 207° |
| 2026-04-18 20:35 | -11.78839 | 136.88252 | 8774 ft | 294 kts | 207° |
| 2026-04-18 20:35 | -11.80591 | 136.87224 | 8457 ft | 287 kts | 207° |
| 2026-04-18 20:36 | -11.82296 | 136.86224 | 8157 ft | 279 kts | 207° |
| 2026-04-18 20:36 | -11.83961 | 136.85247 | 7859 ft | 273 kts | 207° |
| 2026-04-18 20:36 | -11.85593 | 136.84290 | 7573 ft | 267 kts | 206° |
| 2026-04-18 20:36 | -11.86849 | 136.83554 | 7355 ft | 266 kts | 206° |
| 2026-04-18 20:37 | -11.88474 | 136.82603 | 7086 ft | 274 kts | 207° |
| 2026-04-18 20:37 | -11.90156 | 136.81619 | 6765 ft | 281 kts | 207° |
| 2026-04-18 20:37 | -11.91855 | 136.80623 | 6454 ft | 283 kts | 206° |
| 2026-04-18 20:37 | -11.93566 | 136.79619 | 6134 ft | 284 kts | 206° |
| 2026-04-18 20:38 | -11.95285 | 136.78610 | 5812 ft | 285 kts | 206° |
| 2026-04-18 20:38 | -11.97006 | 136.77600 | 5498 ft | 286 kts | 206° |
| 2026-04-18 20:38 | -11.98729 | 136.76588 | 5186 ft | 284 kts | 206° |
| 2026-04-18 20:38 | -12.00418 | 136.75594 | 4879 ft | 276 kts | 206° |
| 2026-04-18 20:39 | -12.02064 | 136.74627 | 4594 ft | 270 kts | 206° |
| 2026-04-18 20:39 | -12.03668 | 136.73684 | 4307 ft | 263 kts | 205° |
| 2026-04-18 20:39 | -12.05236 | 136.72763 | 4070 ft | 255 kts | 206° |
| 2026-04-18 20:39 | -12.06745 | 136.71876 | 3969 ft | 247 kts | 205° |
| 2026-04-18 20:40 | -12.08250 | 136.71013 | 3867 ft | 249 kts | 201° |
| 2026-04-18 20:40 | -12.09827 | 136.70381 | 3758 ft | 242 kts | 194° |
| 2026-04-18 20:40 | -12.11401 | 136.69836 | 3648 ft | 236 kts | 194° |
| 2026-04-18 20:40 | -12.12925 | 136.69304 | 3536 ft | 227 kts | 194° |
| 2026-04-18 20:41 | -12.14389 | 136.68798 | 3404 ft | 215 kts | 188° |
| 2026-04-18 20:41 | -12.15796 | 136.68835 | 3183 ft | 194 kts | 154° |
| 2026-04-18 20:41 | -12.16891 | 136.69492 | 2992 ft | 175 kts | 132° |
| 2026-04-18 20:41 | -12.17676 | 136.70375 | 2807 ft | 160 kts | 126° |
| 2026-04-18 20:42 | -12.18351 | 136.71203 | 2652 ft | 143 kts | 125° |
| 2026-04-18 20:42 | -12.18962 | 136.71956 | 2446 ft | 134 kts | 125° |
| 2026-04-18 20:42 | -12.19543 | 136.72673 | 2311 ft | 130 kts | 125° |
| 2026-04-18 20:42 | -12.20109 | 136.73370 | 2127 ft | 126 kts | 125° |
| 2026-04-18 20:43 | -12.20671 | 136.74062 | 1999 ft | 128 kts | 125° |
| 2026-04-18 20:43 | -12.21236 | 136.74758 | 1937 ft | 126 kts | 125° |
| 2026-04-18 20:43 | -12.21792 | 136.75445 | 1935 ft | 126 kts | 125° |
| 2026-04-18 20:43 | -12.22353 | 136.76138 | 1927 ft | 127 kts | 126° |
| 2026-04-18 20:44 | -12.22916 | 136.76831 | 1928 ft | 127 kts | 126° |
| 2026-04-18 20:44 | -12.23482 | 136.77528 | 1919 ft | 128 kts | 126° |
| 2026-04-18 20:44 | -12.24044 | 136.78225 | 1769 ft | 132 kts | 126° |
| 2026-04-18 20:44 | -12.24631 | 136.78964 | 1330 ft | 131 kts | 124° |
| 2026-04-18 20:45 | -12.25211 | 136.79700 | 802 ft | 138 kts | 126° |
| 2026-04-18 20:45 | -12.25842 | 136.80458 | 488 ft | 141 kts | 129° |
| 2026-04-18 20:45 | -12.26473 | 136.81213 | 226 ft | 135 kts | 128° |
| 2026-04-18 20:45 | -12.26981 | 136.81817 | 203 ft | 77 kts | 126° |
| 2026-04-18 20:46 | -12.27183 | 136.82079 | 202 ft | 34 kts | 130° |
| 2026-04-18 20:46 | -12.27324 | 136.82243 | 200 ft | 11 kts | 132° |
| 2026-04-18 20:46 | -12.27345 | 136.82277 | 197 ft | 9 kts | 107° |
| 2026-04-18 20:46 | -12.27347 | 136.82300 | 197 ft | 0 kts | 92° |
| 2026-04-18 20:47 | -12.27344 | 136.82325 | 197 ft | 11 kts | 73° |
| 2026-04-18 20:47 | -12.27318 | 136.82359 | 201 ft | 4 kts | 33° |
| 2026-04-18 20:47 | -12.27294 | 136.82372 | 205 ft | 11 kts | 30° |
| 2026-04-18 20:48 | -12.27284 | 136.82378 | 202 ft | 0 kts | 30° |